createdAt,value
2023-02-09T00:01:21.995Z,22.33
2023-02-09T00:03:48.777Z,21.13
2023-02-09T00:06:18.719Z,21.95
2023-02-09T00:08:45.881Z,20.40
2023-02-09T00:11:44.466Z,21.33
2023-02-09T00:14:12.446Z,21.83
2023-02-09T00:16:39.449Z,22.85
2023-02-09T00:24:00.058Z,17.83
2023-02-09T00:26:26.887Z,21.25
2023-02-09T00:28:53.588Z,20.92
2023-02-09T00:31:21.121Z,20.58
2023-02-09T00:33:47.924Z,24.75
2023-02-09T00:36:15.197Z,23.58
2023-02-09T00:38:43.001Z,23.27
2023-02-09T00:41:10.567Z,21.58
2023-02-09T00:43:37.733Z,22.42
2023-02-09T00:46:04.706Z,23.98
2023-02-09T00:50:58.691Z,19.48
2023-02-09T00:53:25.803Z,20.20
2023-02-09T00:55:52.444Z,23.35
2023-02-09T00:58:19.975Z,24.30
2023-02-09T01:00:46.970Z,23.50
2023-02-09T01:03:15.842Z,23.15
2023-02-09T01:05:42.966Z,22.17
2023-02-09T01:08:11.203Z,22.88
2023-02-09T01:10:38.710Z,23.20
2023-02-09T01:13:06.243Z,24.77
2023-02-09T01:15:33.013Z,24.35
2023-02-09T01:17:59.884Z,22.67
2023-02-09T01:20:27.213Z,23.48
2023-02-09T01:22:53.836Z,23.67
2023-02-09T01:25:20.500Z,22.27
2023-02-09T01:27:47.085Z,24.45
2023-02-09T01:30:14.212Z,23.17
2023-02-09T01:32:40.862Z,24.63
2023-02-09T01:35:07.692Z,25.27
2023-02-09T01:37:35.468Z,23.23
2023-02-09T01:40:02.956Z,24.48
2023-02-09T01:42:29.604Z,23.15
2023-02-09T01:45:06.898Z,23.60
2023-02-09T01:47:41.603Z,22.13
2023-02-09T01:50:08.555Z,26.23
2023-02-09T01:52:35.971Z,21.85
2023-02-09T01:55:07.753Z,26.25
2023-02-09T01:57:45.089Z,29.83
2023-02-09T02:00:15.160Z,23.10
2023-02-09T02:02:44.903Z,22.58
2023-02-09T02:05:12.144Z,26.45
2023-02-09T02:08:03.227Z,25.77
2023-02-09T02:10:30.888Z,21.23
2023-02-09T02:12:57.897Z,22.23
2023-02-09T02:15:29.895Z,23.08
2023-02-09T02:18:31.486Z,21.40
2023-02-09T02:21:11.454Z,26.35
2023-02-09T02:23:52.531Z,23.15
2023-02-09T02:26:52.598Z,22.00
2023-02-09T02:29:19.189Z,22.63
2023-02-09T02:32:00.992Z,23.38
2023-02-09T02:34:36.412Z,23.38
2023-02-09T02:37:38.740Z,22.52
2023-02-09T02:40:28.685Z,26.70
2023-02-09T02:43:07.962Z,20.88
2023-02-09T02:45:49.988Z,20.60
2023-02-09T02:48:39.559Z,20.90
2023-02-09T02:51:12.948Z,22.38
2023-02-09T02:53:42.600Z,22.05
2023-02-09T02:56:18.704Z,23.70
2023-02-09T02:58:48.429Z,25.40
2023-02-09T03:01:21.052Z,25.40
2023-02-09T03:03:48.714Z,22.65
2023-02-09T03:06:17.254Z,23.55
2023-02-09T03:08:48.292Z,21.58
2023-02-09T03:11:14.972Z,20.27
2023-02-09T03:14:16.494Z,20.77
2023-02-09T03:16:58.651Z,20.63
2023-02-09T03:19:36.066Z,22.73
2023-02-09T03:22:34.398Z,21.05
2023-02-09T03:25:00.917Z,20.67
2023-02-09T03:27:33.851Z,20.80
2023-02-09T03:30:06.659Z,22.90
2023-02-09T03:32:38.508Z,21.52
2023-02-09T03:35:08.371Z,19.75
2023-02-09T03:37:35.009Z,19.30
2023-02-09T03:40:02.075Z,20.95
2023-02-09T03:42:28.844Z,17.80
2023-02-09T03:44:55.486Z,20.90
2023-02-09T03:47:22.306Z,21.63
2023-02-09T03:49:48.906Z,19.88
2023-02-09T03:52:16.826Z,18.95
2023-02-09T03:54:43.995Z,19.15
2023-02-09T03:57:10.944Z,18.35
2023-02-09T04:02:07.531Z,18.40
2023-02-09T04:04:35.004Z,17.88
2023-02-09T04:07:01.675Z,17.85
2023-02-09T04:09:28.504Z,16.75
2023-02-09T04:11:55.860Z,17.35
2023-02-09T04:14:24.756Z,19.73
2023-02-09T04:16:51.281Z,19.08
2023-02-09T04:19:17.906Z,20.40
2023-02-09T04:21:44.522Z,18.80
2023-02-09T04:24:11.257Z,20.17
2023-02-09T04:26:37.934Z,18.40
2023-02-09T04:29:04.809Z,19.75
2023-02-09T04:31:32.082Z,18.92
2023-02-09T04:33:58.657Z,18.95
2023-02-09T04:36:25.261Z,19.27
2023-02-09T04:38:51.854Z,20.15
2023-02-09T04:41:18.537Z,17.58
2023-02-09T04:43:48.622Z,18.55
2023-02-09T04:46:17.089Z,19.60
2023-02-09T04:48:44.893Z,18.27
2023-02-09T04:51:11.714Z,18.75
2023-02-09T04:53:38.616Z,17.75
2023-02-09T04:56:05.904Z,17.08
2023-02-09T04:58:51.223Z,19.02
2023-02-09T05:01:23.975Z,16.65
2023-02-09T05:03:51.154Z,17.73
2023-02-09T05:06:18.317Z,20.33
2023-02-09T05:08:45.631Z,18.83
2023-02-09T05:11:12.569Z,20.00
2023-02-09T05:13:39.186Z,16.40
2023-02-09T05:16:07.497Z,18.35
2023-02-09T05:18:34.708Z,17.23
2023-02-09T05:21:01.574Z,17.02
2023-02-09T05:23:28.122Z,16.23
2023-02-09T05:25:56.573Z,17.30
2023-02-09T05:28:24.626Z,15.57
2023-02-09T05:30:53.774Z,15.90
2023-02-09T05:33:22.335Z,17.92
2023-02-09T05:35:50.165Z,16.75
2023-02-09T05:38:16.922Z,16.25
2023-02-09T05:40:45.127Z,14.82
2023-02-09T05:43:11.965Z,14.35
2023-02-09T05:45:38.761Z,17.67
2023-02-09T05:48:05.480Z,18.15
2023-02-09T05:50:32.082Z,17.38
2023-02-09T05:53:00.036Z,15.82
2023-02-09T05:55:27.227Z,15.63
2023-02-09T05:57:56.326Z,16.10
2023-02-09T06:00:25.023Z,16.90
2023-02-09T06:02:51.896Z,14.18
2023-02-09T06:05:20.830Z,14.25
2023-02-09T06:07:48.364Z,13.13
2023-02-09T06:10:15.513Z,13.45
2023-02-09T06:15:10.363Z,12.43
2023-02-09T06:17:37.118Z,12.90
2023-02-09T06:20:03.918Z,15.32
2023-02-09T06:22:31.820Z,15.65
2023-02-09T06:24:58.543Z,15.05
2023-02-09T06:27:25.281Z,14.85
2023-02-09T06:29:51.818Z,14.05
2023-02-09T06:32:18.457Z,13.95
2023-02-09T06:34:45.281Z,14.27
2023-02-09T06:37:11.967Z,13.27
2023-02-09T06:39:38.506Z,14.68
2023-02-09T06:42:05.186Z,14.95
2023-02-09T06:44:31.740Z,14.23
2023-02-09T06:47:00.040Z,15.13
2023-02-09T06:49:26.907Z,13.60
2023-02-09T06:51:57.702Z,15.50
2023-02-09T06:54:24.505Z,17.90
2023-02-09T06:56:54.183Z,15.23
2023-02-09T06:59:22.304Z,13.88
2023-02-09T07:01:54.844Z,13.48
2023-02-09T07:04:23.856Z,13.73
2023-02-09T07:06:50.461Z,14.65
2023-02-09T07:09:17.101Z,13.88
2023-02-09T07:11:43.880Z,13.90
2023-02-09T07:14:10.537Z,13.30
2023-02-09T07:19:03.786Z,14.30
2023-02-09T07:21:30.440Z,14.07
2023-02-09T07:23:56.993Z,13.15
2023-02-09T07:26:23.822Z,14.25
2023-02-09T07:28:50.511Z,13.00
2023-02-09T07:31:17.683Z,13.80
2023-02-09T07:33:45.425Z,13.45
2023-02-09T07:36:14.585Z,12.70
2023-02-09T07:38:41.767Z,12.73
2023-02-09T07:41:14.825Z,13.65
2023-02-09T07:43:42.341Z,14.57
2023-02-09T07:46:08.995Z,13.02
2023-02-09T07:48:36.641Z,12.85
2023-02-09T07:51:03.852Z,11.88
2023-02-09T07:53:30.441Z,12.52
2023-02-09T07:55:57.569Z,13.07
2023-02-09T08:03:20.983Z,12.65
2023-02-09T08:05:58.395Z,10.60
2023-02-09T08:08:25.051Z,11.40
2023-02-09T08:10:53.074Z,13.32
2023-02-09T08:13:20.370Z,12.43
2023-02-09T08:15:52.273Z,12.25
2023-02-09T08:18:32.354Z,14.48
2023-02-09T08:20:59.131Z,12.65
2023-02-09T08:23:29.928Z,11.00
2023-02-09T08:26:00.373Z,11.77
2023-02-09T08:28:41.724Z,12.07
2023-02-09T08:31:08.683Z,11.10
2023-02-09T08:33:35.333Z,13.35
2023-02-09T08:36:02.137Z,11.15
2023-02-09T08:38:28.741Z,11.07
2023-02-09T08:40:55.301Z,13.88
2023-02-09T08:43:21.966Z,10.48
2023-02-09T08:45:49.040Z,11.57
2023-02-09T08:48:15.989Z,11.23
2023-02-09T08:50:42.539Z,11.80
2023-02-09T08:53:09.043Z,9.55
2023-02-09T08:55:38.128Z,10.73
2023-02-09T08:58:05.059Z,11.23
2023-02-09T09:00:32.293Z,10.00
2023-02-09T09:02:58.835Z,8.75
2023-02-09T09:05:25.415Z,8.80
2023-02-09T09:07:51.892Z,10.60
2023-02-09T09:10:18.645Z,10.48
2023-02-09T09:12:45.195Z,9.15
2023-02-09T09:15:11.824Z,10.10
2023-02-09T09:17:39.696Z,11.43
2023-02-09T09:20:07.040Z,10.52
2023-02-09T09:22:33.842Z,10.10
2023-02-09T09:25:00.391Z,9.77
2023-02-09T09:27:28.227Z,10.43
2023-02-09T09:29:56.003Z,9.68
2023-02-09T09:32:24.766Z,8.85
2023-02-09T09:34:57.436Z,9.45
2023-02-09T09:37:25.615Z,8.88
2023-02-09T09:39:52.956Z,9.45
2023-02-09T09:42:28.181Z,9.27
2023-02-09T09:44:55.525Z,9.23
2023-02-09T09:47:33.273Z,10.60
2023-02-09T09:50:02.634Z,7.88
2023-02-09T09:52:33.711Z,9.07
2023-02-09T09:55:01.648Z,8.68
2023-02-09T09:57:30.853Z,9.18
2023-02-09T09:59:57.808Z,9.93
2023-02-09T10:02:32.605Z,9.82
2023-02-09T10:05:16.318Z,10.23
2023-02-09T10:07:51.272Z,9.18
2023-02-09T10:10:45.434Z,9.23
2023-02-09T10:13:25.578Z,10.05
2023-02-09T10:15:57.012Z,10.30
2023-02-09T10:18:27.290Z,9.82
2023-02-09T10:21:14.402Z,10.45
2023-02-09T10:23:46.918Z,9.15
2023-02-09T10:26:25.133Z,7.38
2023-02-09T10:28:54.932Z,9.40
2023-02-09T10:31:26.916Z,9.07
2023-02-09T10:34:13.113Z,8.88
2023-02-09T10:36:45.803Z,7.70
2023-02-09T10:39:12.348Z,8.65
2023-02-09T10:41:41.902Z,10.45
2023-02-09T10:44:16.597Z,9.27
2023-02-09T10:46:43.195Z,9.00
2023-02-09T10:49:40.017Z,9.70
2023-02-09T10:52:12.532Z,8.70
2023-02-09T10:54:46.874Z,8.60
2023-02-09T10:57:40.022Z,8.55
2023-02-09T11:00:15.640Z,8.80
2023-02-09T11:02:54.157Z,9.35
2023-02-09T11:05:20.638Z,9.68
2023-02-09T11:07:50.240Z,10.77
2023-02-09T11:10:17.117Z,10.23
2023-02-09T11:12:43.992Z,8.70
2023-02-09T11:15:15.337Z,9.90
2023-02-09T11:17:45.558Z,9.05
2023-02-09T11:20:12.178Z,9.52
2023-02-09T11:22:53.953Z,8.90
2023-02-09T11:25:31.505Z,8.93
2023-02-09T11:28:13.780Z,8.38
2023-02-09T11:31:02.270Z,9.80
2023-02-09T11:34:00.019Z,7.68
2023-02-09T11:36:57.465Z,9.43
2023-02-09T11:39:45.953Z,11.10
2023-02-09T11:42:41.835Z,9.18
2023-02-09T11:45:25.033Z,9.88
2023-02-09T11:48:06.594Z,9.07
2023-02-09T11:50:42.691Z,8.52
2023-02-09T11:53:28.170Z,10.25
2023-02-09T11:56:04.386Z,9.07
2023-02-09T11:58:39.534Z,9.15
2023-02-09T12:01:20.686Z,8.40
2023-02-09T12:04:04.819Z,9.15
2023-02-09T12:06:41.550Z,8.63
2023-02-09T12:09:40.369Z,9.45
2023-02-09T12:12:30.046Z,8.73
2023-02-09T12:15:07.895Z,9.10
2023-02-09T12:20:57.626Z,9.18
2023-02-09T12:24:01.831Z,8.98
2023-02-09T12:26:47.648Z,9.55
2023-02-09T12:29:42.668Z,7.43
2023-02-09T12:32:32.771Z,9.40
2023-02-09T12:35:29.220Z,9.18
2023-02-09T12:40:41.479Z,10.05
2023-02-09T12:43:27.348Z,8.70
2023-02-09T12:46:27.719Z,9.57
2023-02-09T12:49:16.285Z,9.23
2023-02-09T12:51:51.694Z,8.60
2023-02-09T12:55:00.127Z,9.48
2023-02-09T13:02:27.112Z,7.63
2023-02-09T13:05:27.565Z,8.52
2023-02-09T13:08:25.708Z,9.07
2023-02-09T13:11:25.475Z,9.95
2023-02-09T13:14:25.496Z,8.95
2023-02-09T13:16:53.232Z,9.00
2023-02-09T13:20:05.781Z,9.20
2023-02-09T13:22:40.003Z,8.75
2023-02-09T13:25:15.980Z,9.43
2023-02-09T13:27:47.075Z,8.88
2023-02-09T13:30:50.301Z,10.63
2023-02-09T13:37:00.929Z,10.98
2023-02-09T13:39:42.539Z,9.60
2023-02-09T13:42:27.008Z,11.50
2023-02-09T13:45:35.331Z,9.93
2023-02-09T13:51:26.342Z,9.63
2023-02-09T13:54:21.058Z,10.95
2023-02-09T13:56:56.109Z,9.32
2023-02-09T13:59:27.861Z,9.77
2023-02-09T14:02:01.672Z,9.07
2023-02-09T14:04:33.956Z,10.98
2023-02-09T14:07:08.377Z,8.68
2023-02-09T14:09:56.595Z,9.30
2023-02-09T14:12:51.519Z,8.63
2023-02-09T14:15:44.684Z,9.63
2023-02-09T14:18:33.403Z,11.35
2023-02-09T14:20:59.945Z,9.35
2023-02-09T14:23:27.576Z,9.73
2023-02-09T14:26:04.334Z,10.63
2023-02-09T14:28:31.199Z,8.98
2023-02-09T14:30:58.769Z,9.88
2023-02-09T14:33:28.620Z,8.52
2023-02-09T14:35:59.118Z,9.30
2023-02-09T14:38:34.694Z,10.45
2023-02-09T14:41:30.619Z,11.00
2023-02-09T14:44:07.326Z,9.73
2023-02-09T14:46:55.976Z,10.40
2023-02-09T14:49:23.999Z,10.05
2023-02-09T14:52:05.824Z,9.85
2023-02-09T14:54:40.477Z,11.20
2023-02-09T14:57:12.097Z,9.55
2023-02-09T14:59:38.697Z,10.30
2023-02-09T15:02:16.715Z,10.57
2023-02-09T15:04:43.437Z,10.68
2023-02-09T15:07:14.810Z,10.70
2023-02-09T15:09:41.333Z,11.63
2023-02-09T15:12:14.279Z,10.52
2023-02-09T15:14:46.830Z,10.43
2023-02-09T15:17:19.888Z,10.07
2023-02-09T15:19:47.256Z,9.43
2023-02-09T15:22:16.191Z,10.60
2023-02-09T15:24:44.045Z,10.57
2023-02-09T15:27:18.385Z,10.20
2023-02-09T15:29:44.955Z,9.75
2023-02-09T15:32:20.179Z,8.70
2023-02-09T15:34:47.074Z,10.02
2023-02-09T15:37:26.107Z,10.70
2023-02-09T15:39:59.494Z,11.88
2023-02-09T15:42:44.586Z,10.63
2023-02-09T15:45:41.285Z,13.52
2023-02-09T15:48:08.747Z,11.35
2023-02-09T15:50:39.123Z,13.15
2023-02-09T15:53:09.382Z,12.80
2023-02-09T15:55:36.932Z,13.63
2023-02-09T15:58:07.870Z,11.60
2023-02-09T16:00:34.485Z,10.73
2023-02-09T16:03:16.247Z,11.63
2023-02-09T16:05:43.513Z,10.77
2023-02-09T16:08:35.477Z,10.80
2023-02-09T16:11:02.245Z,10.55
2023-02-09T16:13:28.789Z,11.18
2023-02-09T16:16:00.312Z,11.18
2023-02-09T16:18:34.717Z,10.82
2023-02-09T16:21:01.294Z,12.25
2023-02-09T16:23:27.983Z,10.70
2023-02-09T16:25:55.040Z,10.98
2023-02-09T16:28:22.060Z,14.52
2023-02-09T16:33:15.184Z,20.40
2023-02-09T16:35:42.205Z,21.08
2023-02-09T16:40:42.577Z,15.85
2023-02-09T16:43:10.707Z,13.98
2023-02-09T16:45:41.968Z,12.30
2023-02-09T16:48:23.960Z,12.63
2023-02-09T16:50:53.225Z,13.70
2023-02-09T16:53:32.677Z,12.18
2023-02-09T16:56:05.742Z,11.23
2023-02-09T16:58:32.628Z,11.80
2023-02-09T17:00:59.346Z,11.77
2023-02-09T17:03:39.151Z,10.95
2023-02-09T17:06:10.317Z,11.68
2023-02-09T17:08:38.010Z,11.95
2023-02-09T17:11:05.201Z,11.25
2023-02-09T17:16:04.620Z,12.20
2023-02-09T17:18:37.309Z,11.68
2023-02-09T17:21:07.854Z,11.30
2023-02-09T17:23:36.930Z,10.85
2023-02-09T17:26:03.970Z,13.63
2023-02-09T17:31:05.161Z,10.48
2023-02-09T17:33:36.032Z,13.50
2023-02-09T17:36:25.036Z,12.05
2023-02-09T17:38:51.001Z,11.13
2023-02-09T17:41:19.874Z,11.07
2023-02-09T17:43:47.158Z,11.05
2023-02-09T17:46:21.259Z,11.52
2023-02-09T17:48:48.649Z,11.68
2023-02-09T17:51:28.467Z,11.38
2023-02-09T17:53:55.502Z,11.90
2023-02-09T17:56:22.094Z,12.13
2023-02-09T17:58:51.440Z,12.95
2023-02-09T18:01:27.649Z,12.57
2023-02-09T18:03:56.352Z,12.23
2023-02-09T18:06:35.096Z,11.55
2023-02-09T18:09:05.030Z,11.20
2023-02-09T18:11:50.580Z,14.50
2023-02-09T18:14:18.474Z,12.57
2023-02-09T18:16:47.014Z,12.63
2023-02-09T18:19:15.782Z,10.77
2023-02-09T18:22:00.344Z,13.60
2023-02-09T18:24:32.247Z,12.80
2023-02-09T18:26:59.420Z,12.32
2023-02-09T18:32:00.764Z,12.23
2023-02-09T18:34:27.736Z,12.93
2023-02-09T18:36:54.481Z,12.90
2023-02-09T18:39:21.202Z,12.52
2023-02-09T18:41:53.849Z,12.15
2023-02-09T18:44:24.294Z,11.95
2023-02-09T18:46:50.873Z,15.25
2023-02-09T18:49:17.557Z,16.92
2023-02-09T18:51:44.206Z,14.43
2023-02-09T18:54:10.770Z,13.75
2023-02-09T18:56:37.250Z,13.95
2023-02-09T18:59:03.863Z,13.60
2023-02-09T19:01:30.463Z,13.95
2023-02-09T19:03:57.154Z,13.77
2023-02-09T19:06:25.482Z,14.25
2023-02-09T19:08:53.321Z,14.85
2023-02-09T19:11:22.610Z,14.80
2023-02-09T19:14:08.267Z,13.52
2023-02-09T19:16:38.485Z,13.80
2023-02-09T19:19:09.271Z,18.38
2023-02-09T19:21:37.093Z,15.60
2023-02-09T19:24:09.700Z,18.30
2023-02-09T19:26:36.488Z,17.90
2023-02-09T19:29:03.439Z,18.23
2023-02-09T19:31:30.592Z,15.02
2023-02-09T19:33:57.775Z,15.48
2023-02-09T19:36:27.855Z,16.83
2023-02-09T19:38:58.486Z,16.25
2023-02-09T19:41:25.680Z,19.17
2023-02-09T19:43:57.151Z,16.65
2023-02-09T19:46:24.992Z,15.07
2023-02-09T19:48:53.746Z,19.27
2023-02-09T19:51:23.254Z,18.92
2023-02-09T19:53:50.440Z,17.23
2023-02-09T19:56:20.809Z,17.52
2023-02-09T19:58:47.314Z,18.02
2023-02-09T20:01:16.631Z,15.82
2023-02-09T20:03:43.790Z,16.65
2023-02-09T20:08:41.048Z,14.02
2023-02-09T20:11:17.562Z,17.08
2023-02-09T20:13:44.854Z,16.38
2023-02-09T20:16:20.971Z,21.67
2023-02-09T20:18:48.819Z,17.05
2023-02-09T20:21:17.193Z,16.83
2023-02-09T20:23:45.758Z,19.40
2023-02-09T20:26:21.715Z,17.85
2023-02-09T20:28:49.419Z,16.70
2023-02-09T20:31:27.439Z,18.73
2023-02-09T20:33:58.465Z,18.13
2023-02-09T20:36:26.675Z,18.63
2023-02-09T20:38:58.136Z,16.88
2023-02-09T20:44:10.320Z,19.45
2023-02-09T20:46:42.413Z,18.63
2023-02-09T20:49:12.197Z,17.73
2023-02-09T20:51:39.323Z,17.58
2023-02-09T20:54:06.459Z,15.90
2023-02-09T20:58:59.604Z,13.48
2023-02-09T21:01:26.801Z,20.48
2023-02-09T21:03:56.479Z,20.10
2023-02-09T21:06:23.249Z,18.85
2023-02-09T21:08:49.837Z,16.60
2023-02-09T21:11:17.501Z,16.98
2023-02-09T21:13:45.490Z,19.58
2023-02-09T21:16:15.593Z,17.92
2023-02-09T21:18:44.325Z,15.82
2023-02-09T21:21:15.264Z,15.85
2023-02-09T21:23:43.458Z,16.65
2023-02-09T21:26:14.140Z,18.73
2023-02-09T21:28:40.792Z,17.52
2023-02-09T21:31:11.569Z,17.83
2023-02-09T21:33:38.186Z,17.45
2023-02-09T21:36:06.563Z,17.77
2023-02-09T21:38:34.495Z,17.42
2023-02-09T21:41:00.988Z,15.60
2023-02-09T21:43:27.513Z,19.27
2023-02-09T21:45:54.097Z,16.63
2023-02-09T21:48:20.632Z,16.05
2023-02-09T21:50:47.353Z,16.85
2023-02-09T21:53:13.921Z,18.13
2023-02-09T21:55:40.399Z,16.95
2023-02-09T21:58:06.921Z,17.90
2023-02-09T22:00:33.721Z,14.90
2023-02-09T22:03:00.478Z,15.48
2023-02-09T22:05:27.068Z,15.48
2023-02-09T22:07:56.044Z,14.82
2023-02-09T22:10:22.547Z,18.10
2023-02-09T22:12:49.697Z,16.63
2023-02-09T22:15:17.972Z,16.63
2023-02-09T22:17:44.795Z,19.80
2023-02-09T22:20:11.626Z,15.45
2023-02-09T22:22:39.760Z,14.52
2023-02-09T22:25:06.723Z,14.70
2023-02-09T22:27:34.125Z,18.73
2023-02-09T22:30:00.604Z,17.17
2023-02-09T22:32:27.199Z,15.70
2023-02-09T22:34:56.099Z,15.50
2023-02-09T22:37:22.663Z,15.27
2023-02-09T22:39:49.163Z,18.13
2023-02-09T22:42:15.651Z,18.05
2023-02-09T22:44:42.198Z,15.88
2023-02-09T22:47:08.753Z,15.57
2023-02-09T22:49:35.319Z,15.43
2023-02-09T22:52:01.876Z,15.07
2023-02-09T22:54:28.478Z,19.88
2023-02-09T22:56:55.561Z,15.85
2023-02-09T23:01:48.759Z,13.80
2023-02-09T23:04:15.584Z,15.55
2023-02-09T23:06:42.207Z,17.25
2023-02-09T23:09:08.954Z,17.00
2023-02-09T23:11:36.057Z,17.10
2023-02-09T23:16:39.737Z,17.55
2023-02-09T23:19:07.722Z,15.93
2023-02-09T23:21:37.359Z,16.70
2023-02-09T23:24:04.977Z,17.00
2023-02-09T23:26:31.831Z,15.40
2023-02-09T23:29:01.039Z,17.00
2023-02-09T23:31:28.054Z,18.88
2023-02-09T23:33:55.328Z,17.05
2023-02-09T23:38:53.717Z,17.92
2023-02-09T23:41:21.028Z,17.30
2023-02-09T23:43:48.240Z,16.70
2023-02-09T23:46:17.179Z,16.42
2023-02-09T23:48:47.781Z,16.25
2023-02-09T23:51:19.924Z,15.23
2023-02-09T23:53:47.776Z,15.60
2023-02-09T23:56:16.593Z,15.20
2023-02-09T23:58:45.982Z,15.65
